Time;durP1;ratioP1;P1;durP2;ratioP2;P2;SDS_P1;SDS_P2;PMS_P1;PMS_P2;Temp;Humidity;BMP_temperature;BMP_pressure;BME280_temperature;BME280_humidity;BME280_pressure;Samples;Min_cycle;Max_cycle;Signal;HPM_P1;HPM_P2
2023/12/13 07:08:17;;;;;;;;;;;;;;;11.19;79.46;95523.94;4191455;27;10290;-77
2023/12/13 07:10:21;;;;;;;;;;;;;;;11.43;78.26;95519.47;4192060;28;5254;-77
2023/12/13 07:12:27;;;;;;;;;;;;;;;11.63;78.38;95522.59;4195401;28;5747;-77
2023/12/13 07:14:30;;;;;;;;;;;;;;;11.78;78.04;95521.31;4192073;28;5925;-77
2023/12/13 07:16:33;;;;;;;;;;;;;;;11.93;77.41;95521.69;4193695;28;5840;-77
2023/12/13 07:18:36;;;;;;;;;;;;;;;12.04;76.85;95523.53;4196036;28;5726;-77
2023/12/13 07:20:39;;;;;;;;;;;;;;;12.11;75.98;95513.59;4196374;28;5893;-77
2023/12/13 07:22:45;;;;;;;;;;;;;;;12.17;76.11;95515.31;4194065;28;5719;-78
2023/12/13 07:24:50;;;;;;;;;;;;;;;12.24;75.85;95513.34;4197676;28;5712;-77
2023/12/13 07:26:53;;;;;;;;;;;;;;;12.30;75.69;95519.56;4197309;28;5715;-78
2023/12/13 07:28:56;;;;;;;;;;;;;;;12.34;75.53;95514.56;4197664;28;5845;-77
2023/12/13 07:31:03;;;;;;;;;;;;;;;12.41;75.29;95518.72;4196514;28;5715;-78
2023/12/13 07:33:12;;;;;;;;;;;;;;;12.47;75.20;95519.63;4195956;28;5691;-77
2023/12/13 07:35:15;;;;;;;;;;;;;;;12.53;74.93;95521.31;4196044;28;5711;-78
2023/12/13 07:37:19;;;;;;;;;;;;;;;12.56;74.44;95533.28;4192489;28;5783;-78
2023/12/13 07:39:24;;;;;;;;;;;;;;;12.59;74.47;95528.34;4194489;28;5947;-77
2023/12/13 07:41:28;;;;;;;;;;;;;;;12.61;74.18;95530.75;4192455;28;5807;-78
2023/12/13 07:43:32;;;;;;;;;;;;;;;12.62;73.99;95527.88;4193821;28;5142;-77
2023/12/13 07:45:34;;;;;;;;;;;;;;;12.65;73.55;95515.97;4196927;28;5829;-77
2023/12/13 07:47:38;;;;;;;;;;;;;;;12.65;73.51;95521.28;4189464;28;5819;-77
2023/12/13 07:49:41;;;;;;;;;;;;;;;12.66;72.95;95517.59;4195457;28;6463;-77
2023/12/13 07:51:44;;;;;;;;;;;;;;;12.64;72.77;95531.09;4192033;28;5779;-78
2023/12/13 07:53:47;;;;;;;;;;;;;;;12.66;72.41;95529.00;4195040;28;5874;-78
2023/12/13 07:55:49;;;;;;;;;;;;;;;12.64;71.55;95525.78;4192128;28;5711;-78
2023/12/13 07:57:55;;;;;;;;;;;;;;;12.65;71.50;95527.38;4205374;28;5849;-76
2023/12/13 07:59:58;;;;;;;;;;;;;;;12.64;71.01;95531.09;4193110;28;5794;-77
2023/12/13 08:02:01;;;;;;;;;;;;;;;12.64;70.98;95539.03;4194799;28;5794;-77
2023/12/13 08:04:05;;;;;;;;;;;;;;;12.67;71.20;95530.59;4199762;28;5824;-77
2023/12/13 08:06:12;;;;;;;;;;;;;;;12.70;71.27;95526.69;4200195;28;5699;-77
2023/12/13 08:08:15;;;;;;;;;;;;;;;12.70;71.26;95532.78;4186886;28;6970;-72
2023/12/13 08:10:18;;;;;;;;;;;;;;;12.72;71.05;95532.56;4181110;28;5966;-78
2023/12/13 08:12:21;;;;;;;;;;;;;;;12.73;70.78;95534.97;4185351;28;6412;-73
2023/12/13 08:14:30;;;;;;;;;;;;;;;12.74;70.83;95531.28;4182117;28;5865;-73
2023/12/13 08:16:33;;;;;;;;;;;;;;;12.77;70.19;95536.09;4180884;28;5950;-73
2023/12/13 08:18:37;;;;;;;;;;;;;;;12.77;70.25;95536.09;4188078;28;5730;-72
2023/12/13 08:20:40;;;;;;;;;;;;;;;12.77;70.29;95520.19;4183877;28;5881;-71
2023/12/13 08:22:43;;;;;;;;;;;;;;;12.78;69.83;95518.34;4191296;28;5792;-72
2023/12/13 08:24:46;;;;;;;;;;;;;;;12.77;69.88;95522.84;4180742;28;5831;-70
2023/12/13 08:26:49;;;;;;;;;;;;;;;12.78;69.87;95528.94;4181161;28;5799;-72
2023/12/13 08:28:52;;;;;;;;;;;;;;;12.76;69.83;95545.09;4180955;28;5804;-72
2023/12/13 08:31:11;;;;;;;;;;;;;;;12.72;69.88;95570.50;4176605;28;5691;-72
2023/12/13 08:33:25;;;;;;;;;;;;;;;12.69;69.58;95594.03;4177212;28;5916;-79
2023/12/13 08:35:28;;;;;;;;;;;;;;;12.53;68.51;95584.94;4183084;28;5699;-75
2023/12/13 08:37:31;;;;;;;;;;;;;;;12.31;68.30;95589.25;4178775;28;5820;-77
2023/12/13 08:39:35;;;;;;;;;;;;;;;12.19;68.52;95597.22;4185970;28;5830;-84
2023/12/13 08:41:38;;;;;;;;;;;;;;;12.17;68.53;95596.66;4187746;28;6399;-80
2023/12/13 08:43:41;;;;;;;;;;;;;;;12.17;68.38;95568.31;4190564;28;5806;-77
2023/12/13 08:45:44;;;;;;;;;;;;;;;12.21;68.18;95555.38;4183887;28;5718;-78
2023/12/13 08:47:49;;;;;;;;;;;;;;;12.17;67.74;95552.41;4186871;28;5698;-81
2023/12/13 08:49:54;;;;;;;;;;;;;;;12.14;67.57;95541.50;4181447;28;5829;-81
2023/12/13 08:51:57;;;;;;;;;;;;;;;12.16;67.71;95539.41;4187944;28;5719;-83
2023/12/13 08:54:00;;;;;;;;;;;;;;;12.19;67.57;95528.34;4189314;28;5086;-83
2023/12/13 08:56:04;;;;;;;;;;;;;;;12.11;65.75;95518.88;4187331;28;5794;-85
2023/12/13 08:58:08;;;;;;;;;;;;;;;11.99;66.07;95512.81;4187998;28;6511;-84
2023/12/13 09:00:12;;;;;;;;;;;;;;;11.94;66.75;95520.66;4186467;28;5810;-85
2023/12/13 09:02:15;;;;;;;;;;;;;;;11.96;67.09;95510.63;4185916;28;6407;-85
2023/12/13 09:04:19;;;;;;;;;;;;;;;12.04;66.72;95514.78;4187594;28;5741;-85
2023/12/13 09:06:22;;;;;;;;;;;;;;;12.04;66.61;95518.22;4185869;28;5089;-84
2023/12/13 09:08:25;;;;;;;;;;;;;;;12.10;66.57;95519.13;4214434;28;7711;-85
2023/12/13 09:10:28;;;;;;;;;;;;;;;12.14;66.60;95526.41;4209533;28;5852;-82
2023/12/13 09:12:31;;;;;;;;;;;;;;;12.21;66.46;95532.34;4213837;28;5676;-83
2023/12/13 09:14:34;;;;;;;;;;;;;;;12.26;66.36;95534.31;4217790;28;5758;-81
2023/12/13 09:16:38;;;;;;;;;;;;;;;12.30;66.44;95532.78;4216270;28;5787;-85
2023/12/13 09:18:44;;;;;;;;;;;;;;;12.29;66.44;95543.63;4217971;28;5731;-85
2023/12/13 09:20:47;;;;;;;;;;;;;;;12.30;65.59;95539.94;4210516;28;5782;-82
2023/12/13 09:22:50;;;;;;;;;;;;;;;12.26;65.22;95541.47;4217696;28;5703;-84
2023/12/13 09:24:52;;;;;;;;;;;;;;;12.20;65.31;95524.63;4218345;28;5758;-85
2023/12/13 09:26:56;;;;;;;;;;;;;;;12.19;65.90;95526.47;4208912;28;5660;-85
2023/12/13 09:28:59;;;;;;;;;;;;;;;12.23;66.13;95538.25;4215931;28;5874;-85
2023/12/13 09:31:02;;;;;;;;;;;;;;;12.32;65.85;95532.56;4211064;28;5695;-84
2023/12/13 09:33:04;;;;;;;;;;;;;;;12.34;65.63;95530.47;4212989;28;5892;-82
2023/12/13 09:35:08;;;;;;;;;;;;;;;12.34;65.91;95539.22;4214722;28;5739;-84
2023/12/13 09:37:13;;;;;;;;;;;;;;;12.35;65.68;95538.22;4202342;28;5720;-82
2023/12/13 09:39:16;;;;;;;;;;;;;;;12.35;65.43;95542.72;4209968;28;5807;-85
2023/12/13 09:41:24;;;;;;;;;;;;;;;12.33;65.09;95542.13;4222460;28;5656;-84
2023/12/13 09:43:27;;;;;;;;;;;;;;;12.32;65.73;95532.56;4221296;28;5822;-83
2023/12/13 09:45:31;;;;;;;;;;;;;;;12.33;65.75;95539.47;4220955;28;6487;-85
2023/12/13 09:47:34;;;;;;;;;;;;;;;12.36;65.53;95536.38;4207739;28;5200;-83
2023/12/13 09:49:39;;;;;;;;;;;;;;;12.38;65.24;95527.13;4219654;28;7436;-82
2023/12/13 09:51:44;;;;;;;;;;;;;;;12.40;65.43;95529.56;4211465;28;5875;-81
2023/12/13 09:53:50;;;;;;;;;;;;;;;12.40;65.37;95529.56;4217152;28;5766;-82
2023/12/13 09:55:53;;;;;;;;;;;;;;;12.41;65.34;95523.22;4218678;28;5689;-81
2023/12/13 09:57:56;;;;;;;;;;;;;;;12.43;65.18;95521.13;4221622;28;5656;-79
2023/12/13 10:00:00;;;;;;;;;;;;;;;12.42;65.14;95522.97;4212639;28;5784;-80
2023/12/13 10:02:03;;;;;;;;;;;;;;;12.45;65.21;95513.75;4203012;28;5709;-82
2023/12/13 10:04:07;;;;;;;;;;;;;;;12.47;65.24;95515.13;4218625;28;5755;-83
2023/12/13 10:06:10;;;;;;;;;;;;;;;12.47;64.93;95515.13;4204041;28;5106;-82
2023/12/13 10:08:15;;;;;;;;;;;;;;;12.51;65.31;95515.47;4211497;28;5667;-85
2023/12/13 10:10:19;;;;;;;;;;;;;;;12.56;64.89;95512.09;4218562;28;5795;-84
2023/12/13 10:12:22;;;;;;;;;;;;;;;12.53;65.10;95523.97;4215976;28;5838;-84
2023/12/13 10:14:24;;;;;;;;;;;;;;;12.54;65.00;95536.19;4209254;28;5867;-80
2023/12/13 10:16:28;;;;;;;;;;;;;;;12.55;64.77;95521.88;4218470;28;5664;-67
2023/12/13 10:18:32;;;;;;;;;;;;;;;12.53;64.63;95526.63;4213403;28;5858;-66
2023/12/13 10:20:35;;;;;;;;;;;;;;;12.52;64.37;95527.66;4212437;28;5676;-68
2023/12/13 10:22:38;;;;;;;;;;;;;;;12.48;64.03;95513.28;4214642;28;5903;-68
2023/12/13 10:24:43;;;;;;;;;;;;;;;12.47;64.31;95515.13;4208446;28;5763;-66
2023/12/13 10:26:47;;;;;;;;;;;;;;;12.57;64.45;95508.38;4206528;28;5777;-70
2023/12/13 10:28:50;;;;;;;;;;;;;;;12.64;64.66;95509.88;4211601;28;5807;-70
2023/12/13 10:30:53;;;;;;;;;;;;;;;12.68;64.43;95499.59;4208595;28;6349;-70
2023/12/13 10:32:56;;;;;;;;;;;;;;;12.70;64.32;95506.28;4214102;28;5664;-70
2023/12/13 10:34:59;;;;;;;;;;;;;;;12.72;64.36;95501.53;4214136;28;5869;-70
2023/12/13 10:37:03;;;;;;;;;;;;;;;12.75;64.51;95493.09;4208294;28;6399;-80
2023/12/13 10:39:07;;;;;;;;;;;;;;;12.78;64.31;95494.47;4219372;28;5796;-71
2023/12/13 10:41:15;;;;;;;;;;;;;;;12.81;64.47;95496.66;4224197;28;5691;-70
2023/12/13 10:43:21;;;;;;;;;;;;;;;12.81;63.89;95486.84;4224377;28;5668;-72
2023/12/13 10:45:25;;;;;;;;;;;;;;;12.80;64.25;95501.16;4216022;28;5680;-71
2023/12/13 10:47:28;;;;;;;;;;;;;;;12.82;64.17;95490.31;4217899;28;5670;-70
2023/12/13 10:49:31;;;;;;;;;;;;;;;12.85;64.24;95481.06;4220562;28;5672;-71
2023/12/13 10:51:36;;;;;;;;;;;;;;;12.87;64.23;95473.66;4221023;28;5652;-70
2023/12/13 10:53:42;;;;;;;;;;;;;;;12.83;63.63;95468.84;4212567;28;5677;-70
2023/12/13 10:55:47;;;;;;;;;;;;;;;12.74;63.60;95472.94;4216947;28;5719;-71
2023/12/13 10:57:51;;;;;;;;;;;;;;;12.68;63.51;95462.47;4215933;28;5687;-72
2023/12/13 10:59:56;;;;;;;;;;;;;;;12.62;63.54;95458.94;4217082;28;5672;-71
2023/12/13 11:01:59;;;;;;;;;;;;;;;12.58;63.61;95463.13;4216839;28;5783;-71
2023/12/13 11:04:08;;;;;;;;;;;;;;;12.57;63.67;95456.19;4214383;28;5746;-70
2023/12/13 11:06:14;;;;;;;;;;;;;;;12.56;63.85;95451.91;4225739;28;5881;-70
2023/12/13 11:08:20;;;;;;;;;;;;;;;12.56;63.45;95459.06;4215688;28;5823;-72
2023/12/13 11:10:23;;;;;;;;;;;;;;;12.52;63.40;95456.09;4210400;28;5675;-72
2023/12/13 11:12:26;;;;;;;;;;;;;;;12.50;63.73;95458.19;4217674;28;5788;-78
2023/12/13 11:14:30;;;;;;;;;;;;;;;12.52;63.81;95453.44;4211671;28;6640;-82
2023/12/13 11:16:40;;;;;;;;;;;;;;;12.57;63.76;95444.75;4212147;28;5684;-81
2023/12/13 11:18:46;;;;;;;;;;;;;;;12.60;63.89;95454.91;4213742;28;6345;-74
2023/12/13 11:20:54;;;;;;;;;;;;;;;12.60;63.91;95442.47;4215146;28;5676;-76
2023/12/13 11:22:57;;;;;;;;;;;;;;;12.63;64.01;95436.69;4215653;28;5688;-76
2023/12/13 11:25:03;;;;;;;;;;;;;;;12.66;63.70;95428.25;4209788;28;5853;-70
2023/12/13 11:27:11;;;;;;;;;;;;;;;12.68;63.63;95430.66;4208396;28;5842;-78
2023/12/13 11:29:15;;;;;;;;;;;;;;;12.71;63.66;95416.94;4200610;28;5690;-78
2023/12/13 11:31:22;;;;;;;;;;;;;;;12.75;63.71;95420.69;4214508;28;5816;-71
2023/12/13 11:33:35;;;;;;;;;;;;;;;12.78;63.58;95415.72;4210704;28;5781;-86
2023/12/13 11:35:39;;;;;;;;;;;;;;;12.81;63.75;95412.59;4216726;28;5902;-83
2023/12/13 11:37:42;;;;;;;;;;;;;;;12.82;63.68;95416.88;4216044;28;5819;-83
2023/12/13 11:39:45;;;;;;;;;;;;;;;12.85;63.53;95401.50;4217701;28;6356;-85
2023/12/13 11:41:48;;;;;;;;;;;;;;;12.86;63.60;95406.56;4214879;28;5753;-74
2023/12/13 11:43:51;;;;;;;;;;;;;;;12.87;63.47;95408.16;4215836;28;5684;-69
2023/12/13 11:45:54;;;;;;;;;;;;;;;12.83;63.40;95399.91;4222617;28;5672;-74
2023/12/13 11:47:56;;;;;;;;;;;;;;;12.81;63.34;95404.66;4213477;28;6625;-81
2023/12/13 11:50:00;;;;;;;;;;;;;;;12.75;63.44;95408.25;4213229;28;5670;-70
2023/12/13 11:52:04;;;;;;;;;;;;;;;12.69;63.66;95411.88;4219034;28;5688;-68
2023/12/13 11:54:08;;;;;;;;;;;;;;;12.72;63.61;95422.00;4222132;28;5822;-69
2023/12/13 11:56:12;;;;;;;;;;;;;;;12.74;63.83;95422.56;4219688;28;5668;-69
2023/12/13 11:58:15;;;;;;;;;;;;;;;12.77;63.73;95431.88;4219305;28;6473;-69
2023/12/13 12:00:19;;;;;;;;;;;;;;;12.79;63.94;95414.66;4219400;28;5684;-69
2023/12/13 12:02:23;;;;;;;;;;;;;;;12.82;63.71;95419.50;4217900;28;5668;-69
2023/12/13 12:04:26;;;;;;;;;;;;;;;12.86;63.71;95397.81;4204856;28;5648;-69
2023/12/13 12:06:31;;;;;;;;;;;;;;;12.87;63.77;95402.88;4216822;28;5704;-70
2023/12/13 12:08:36;;;;;;;;;;;;;;;12.88;63.95;95399.16;4210939;28;5697;-70
2023/12/13 12:10:39;;;;;;;;;;;;;;;12.90;63.91;95402.38;4202853;28;5669;-70
2023/12/13 12:12:42;;;;;;;;;;;;;;;12.92;64.06;95399.50;4215243;28;5747;-70
2023/12/13 12:14:47;;;;;;;;;;;;;;;12.93;63.98;95404.56;4210559;28;5664;-70
2023/12/13 12:16:50;;;;;;;;;;;;;;;12.92;63.98;95394.19;4210913;28;5684;-68
2023/12/13 12:18:55;;;;;;;;;;;;;;;12.91;63.87;95382.78;4204686;28;5682;-69
2023/12/13 12:20:57;;;;;;;;;;;;;;;12.90;63.86;95375.84;4217641;28;5668;-69
2023/12/13 12:23:01;;;;;;;;;;;;;;;12.87;63.95;95378.19;4212108;28;5794;-69
2023/12/13 12:25:06;;;;;;;;;;;;;;;12.81;63.92;95378.13;4202635;28;5693;-68
2023/12/13 12:27:12;;;;;;;;;;;;;;;12.82;64.06;95384.22;4218695;28;5664;-67
2023/12/13 12:29:14;;;;;;;;;;;;;;;12.81;64.07;95396.69;4210576;28;6383;-69
2023/12/13 12:31:19;;;;;;;;;;;;;;;12.80;63.81;95421.59;4210633;28;5723;-69
2023/12/13 12:33:22;;;;;;;;;;;;;;;12.77;63.94;95432.66;4210751;28;5671;-68
2023/12/13 12:35:25;;;;;;;;;;;;;;;12.68;63.96;95428.78;4210707;28;5668;-69
2023/12/13 12:37:28;;;;;;;;;;;;;;;12.66;64.01;95428.25;4211511;28;5896;-69
2023/12/13 12:39:34;;;;;;;;;;;;;;;12.67;63.78;95413.13;4213591;28;6734;-68
2023/12/13 12:41:37;;;;;;;;;;;;;;;12.65;64.02;95410.72;4215146;28;5695;-68
2023/12/13 12:43:40;;;;;;;;;;;;;;;12.62;63.84;95410.41;4205947;28;5868;-69
2023/12/13 12:45:43;;;;;;;;;;;;;;;12.62;64.12;95421.00;4221601;28;6591;-68
2023/12/13 12:47:45;;;;;;;;;;;;;;;12.60;63.95;95423.09;4221468;28;5849;-69
2023/12/13 12:49:49;;;;;;;;;;;;;;;12.59;64.22;95416.19;4218433;28;5705;-68
2023/12/13 12:51:53;;;;;;;;;;;;;;;12.61;64.10;95420.22;4222525;28;5752;-68
2023/12/13 12:53:56;;;;;;;;;;;;;;;12.63;64.29;95418.13;4219991;28;5759;-68
2023/12/13 12:56:00;;;;;;;;;;;;;;;12.59;64.18;95416.19;4207774;28;5693;-70
2023/12/13 12:58:06;;;;;;;;;;;;;;;12.57;64.42;95412.97;4217802;28;6143;-70
2023/12/13 13:00:10;;;;;;;;;;;;;;;12.54;64.14;95420.34;4212173;28;5717;-70
2023/12/13 13:02:13;;;;;;;;;;;;;;;12.46;64.36;95417.31;4210326;28;5859;-70
2023/12/13 13:04:16;;;;;;;;;;;;;;;12.41;64.25;95422.50;4217754;28;5738;-69
2023/12/13 13:06:19;;;;;;;;;;;;;;;12.41;64.64;95427.78;4213671;28;5678;-70
2023/12/13 13:08:22;;;;;;;;;;;;;;;12.38;64.50;95436.22;4211850;28;5688;-68
2023/12/13 13:10:25;;;;;;;;;;;;;;;12.35;64.72;95431.41;4218341;28;5664;-66
2023/12/13 13:12:30;;;;;;;;;;;;;;;12.31;64.72;95440.84;4210188;28;5732;-65
2023/12/13 13:14:34;;;;;;;;;;;;;;;12.19;64.79;95439.06;4215253;28;5694;-66
2023/12/13 13:16:37;;;;;;;;;;;;;;;12.14;64.86;95448.75;4213728;28;6391;-66
2023/12/13 13:18:39;;;;;;;;;;;;;;;12.08;65.06;95439.91;4218440;28;5743;-65
2023/12/13 13:20:42;;;;;;;;;;;;;;;12.05;64.99;95445.66;4218182;28;6472;-66
2023/12/13 13:22:47;;;;;;;;;;;;;;;12.06;64.90;95449.13;4218261;28;5660;-66
2023/12/13 13:24:50;;;;;;;;;;;;;;;12.08;64.92;95465.59;4218218;28;5875;-66
2023/12/13 13:26:53;;;;;;;;;;;;;;;12.13;64.73;95468.34;4211730;28;5685;-67
2023/12/13 13:28:59;;;;;;;;;;;;;;;12.17;64.51;95475.59;4207816;28;5668;-66
2023/12/13 13:31:04;;;;;;;;;;;;;;;12.28;64.66;95475.78;4211080;28;5832;-65
2023/12/13 13:33:10;;;;;;;;;;;;;;;12.34;64.12;95477.47;4217547;28;5680;-67
2023/12/13 13:35:13;;;;;;;;;;;;;;;12.37;64.34;95477.03;4212248;28;6398;-66
2023/12/13 13:37:15;;;;;;;;;;;;;;;12.40;64.34;95474.69;4209143;28;5802;-66
2023/12/13 13:39:19;;;;;;;;;;;;;;;12.44;64.28;95473.16;4208537;28;5822;-65
2023/12/13 13:41:22;;;;;;;;;;;;;;;12.42;64.10;95477.09;4209848;28;5679;-65
2023/12/13 13:43:26;;;;;;;;;;;;;;;12.40;64.07;95481.84;4209666;28;5085;-65
2023/12/13 13:45:30;;;;;;;;;;;;;;;12.42;63.90;95485.06;4209458;28;5672;-65
2023/12/13 13:47:32;;;;;;;;;;;;;;;12.46;64.05;95486.22;4212397;28;5689;-66
2023/12/13 13:49:35;;;;;;;;;;;;;;;12.49;64.00;95481.25;4201173;28;5697;-66
2023/12/13 13:51:39;;;;;;;;;;;;;;;12.50;63.90;95482.84;4213361;28;5668;-66
2023/12/13 13:53:42;;;;;;;;;;;;;;;12.57;63.74;95497.78;4213446;28;5704;-67
2023/12/13 13:55:45;;;;;;;;;;;;;;;12.55;63.74;95479.47;4218339;28;5680;-67
2023/12/13 13:57:48;;;;;;;;;;;;;;;12.58;63.82;95489.63;4217457;28;5785;-67
2023/12/13 13:59:50;;;;;;;;;;;;;;;12.60;63.70;95490.19;4209041;28;5691;-66
2023/12/13 14:01:55;;;;;;;;;;;;;;;12.61;63.49;95485.69;4203188;28;5788;-65
2023/12/13 14:03:59;;;;;;;;;;;;;;;12.60;63.42;95489.38;4215408;28;5677;-67
2023/12/13 14:06:02;;;;;;;;;;;;;;;12.61;63.46;95499.75;4215504;28;6527;-67
2023/12/13 14:08:09;;;;;;;;;;;;;;;12.60;63.48;95498.13;4207932;28;5684;-65
2023/12/13 14:10:12;;;;;;;;;;;;;;;12.56;63.28;95498.84;4201173;28;5689;-65
2023/12/13 14:12:14;;;;;;;;;;;;;;;12.56;63.00;95504.13;4209759;28;5801;-66
2023/12/13 14:14:17;;;;;;;;;;;;;;;12.52;62.92;95506.47;4214260;28;5672;-65
2023/12/13 14:16:20;;;;;;;;;;;;;;;12.56;63.25;95510.25;4210263;28;5811;-63
2023/12/13 14:18:24;;;;;;;;;;;;;;;12.60;62.66;95508.75;4217373;28;5680;-64
2023/12/13 14:20:28;;;;;;;;;;;;;;;12.60;62.38;95514.03;4217223;28;5663;-64
2023/12/13 14:22:31;;;;;;;;;;;;;;;12.55;62.47;95508.63;4217248;28;5675;-65
2023/12/13 14:24:34;;;;;;;;;;;;;;;12.54;62.48;95507.03;4217314;28;5680;-64
2023/12/13 14:26:36;;;;;;;;;;;;;;;12.55;62.16;95508.63;4216841;28;6086;-65
2023/12/13 14:28:39;;;;;;;;;;;;;;;12.56;62.17;95507.59;4217545;28;6831;-65
2023/12/13 14:30:43;;;;;;;;;;;;;;;12.54;62.13;95505.19;4217389;28;5700;-65
2023/12/13 14:32:46;;;;;;;;;;;;;;;12.57;62.24;95503.09;4208797;28;5743;-66
2023/12/13 14:34:50;;;;;;;;;;;;;;;12.60;61.88;95503.44;4211782;28;5705;-65
2023/12/13 14:36:52;;;;;;;;;;;;;;;12.61;61.94;95499.75;4213678;28;5727;-66
2023/12/13 14:38:55;;;;;;;;;;;;;;;12.62;61.90;95493.41;4217190;28;5810;-67
2023/12/13 14:40:58;;;;;;;;;;;;;;;12.64;61.92;95490.50;4217231;28;5665;-64
2023/12/13 14:43:01;;;;;;;;;;;;;;;12.63;61.63;95491.56;4207350;28;5900;-66
2023/12/13 14:45:08;;;;;;;;;;;;;;;12.62;61.77;95485.44;4201114;28;5701;-66
2023/12/13 14:47:11;;;;;;;;;;;;;;;12.63;61.89;95491.56;4217641;28;5708;-67
2023/12/13 14:49:14;;;;;;;;;;;;;;;12.63;61.64;95491.56;4216580;28;5667;-66
2023/12/13 14:51:19;;;;;;;;;;;;;;;12.66;61.66;95491.06;4201150;28;5702;-66
2023/12/13 14:53:23;;;;;;;;;;;;;;;12.69;61.74;95495.91;4208982;28;5784;-66
2023/12/13 14:55:26;;;;;;;;;;;;;;;12.70;61.67;95500.97;4215156;28;5664;-66
2023/12/13 14:57:29;;;;;;;;;;;;;;;12.69;61.76;95499.38;4210946;28;5689;-66
2023/12/13 14:59:32;;;;;;;;;;;;;;;12.68;61.33;95508.34;4205281;28;5776;-67
2023/12/13 15:01:35;;;;;;;;;;;;;;;12.69;61.20;95515.28;4200234;28;5697;-66
2023/12/13 15:03:38;;;;;;;;;;;;;;;12.72;61.10;95514.81;4215755;28;5668;-66
2023/12/13 15:05:40;;;;;;;;;;;;;;;12.70;60.95;95513.44;4217314;28;5683;-67
2023/12/13 15:07:46;;;;;;;;;;;;;;;12.72;60.79;95517.44;4216823;28;5680;-64
2023/12/13 15:09:50;;;;;;;;;;;;;;;12.75;60.83;95508.22;4208697;28;5675;-66
2023/12/13 15:11:53;;;;;;;;;;;;;;;12.77;61.07;95530.00;4213318;28;6449;-66
2023/12/13 15:13:56;;;;;;;;;;;;;;;12.77;60.25;95520.19;4214796;28;5668;-66
2023/12/13 15:15:59;;;;;;;;;;;;;;;12.76;60.50;95529.19;4216377;28;5729;-66
2023/12/13 15:18:01;;;;;;;;;;;;;;;12.74;60.57;95527.81;4226886;28;5668;-65
2023/12/13 15:20:07;;;;;;;;;;;;;;;12.70;60.52;95524.84;4212169;28;5822;-66
2023/12/13 15:22:11;;;;;;;;;;;;;;;12.66;60.08;95533.50;4212640;28;7663;-65
2023/12/13 15:24:16;;;;;;;;;;;;;;;12.62;59.65;95538.47;4212044;28;5743;-66
2023/12/13 15:26:19;;;;;;;;;;;;;;;12.64;59.81;95536.38;4219177;28;5789;-65
2023/12/13 15:28:22;;;;;;;;;;;;;;;12.66;59.21;95552.06;4223675;28;5688;-67
2023/12/13 15:30:27;;;;;;;;;;;;;;;12.67;59.71;95549.16;4217078;28;5643;-67
2023/12/13 15:32:30;;;;;;;;;;;;;;;12.71;59.70;95560.13;4221049;28;5826;-65
2023/12/13 15:34:33;;;;;;;;;;;;;;;12.74;59.67;95557.78;4219172;28;5751;-65
2023/12/13 15:36:38;;;;;;;;;;;;;;;12.72;59.30;95565.19;4224063;28;5666;-65
2023/12/13 15:38:41;;;;;;;;;;;;;;;12.74;59.64;95568.41;4223428;28;5731;-65
2023/12/13 15:40:45;;;;;;;;;;;;;;;12.79;59.39;95571.13;4218263;28;5764;-66
2023/12/13 15:42:49;;;;;;;;;;;;;;;12.82;59.67;95572.53;4211410;28;5812;-65
2023/12/13 15:44:52;;;;;;;;;;;;;;;12.83;59.34;95576.78;4216310;28;5875;-66
2023/12/13 15:46:55;;;;;;;;;;;;;;;12.86;59.59;95575.50;4206501;28;5670;-65
2023/12/13 15:48:58;;;;;;;;;;;;;;;12.85;59.47;95573.91;4212745;28;5831;-66
2023/12/13 15:51:01;;;;;;;;;;;;;;;12.80;59.04;95579.94;4218316;28;5670;-66
2023/12/13 15:53:04;;;;;;;;;;;;;;;12.76;59.04;95568.97;4218809;28;5676;-64
2023/12/13 15:55:08;;;;;;;;;;;;;;;12.78;59.30;95580.13;4220363;28;5680;-65
2023/12/13 15:57:11;;;;;;;;;;;;;;;12.79;59.33;95572.97;4230676;28;5812;-66
2023/12/13 15:59:15;;;;;;;;;;;;;;;12.81;59.37;95571.72;4218294;28;5668;-66
2023/12/13 16:01:17;;;;;;;;;;;;;;;12.82;59.08;95577.84;4212218;28;5676;-66
2023/12/13 16:03:20;;;;;;;;;;;;;;;12.82;59.30;95565.38;4218017;28;5675;-66
2023/12/13 16:05:23;;;;;;;;;;;;;;;12.85;59.22;95563.28;4202919;28;5705;-65
2023/12/13 16:07:26;;;;;;;;;;;;;;;12.87;59.16;95561.19;4213584;28;5676;-66
2023/12/13 16:09:29;;;;;;;;;;;;;;;12.89;59.21;95575.03;4208672;28;5900;-66
2023/12/13 16:11:31;;;;;;;;;;;;;;;12.90;59.04;95577.44;4216365;28;6218;-66
2023/12/13 16:13:37;;;;;;;;;;;;;;;12.91;58.96;95564.97;4219299;28;5672;-66
2023/12/13 16:15:40;;;;;;;;;;;;;;;12.94;58.94;95573.28;4218770;28;5717;-66
2023/12/13 16:17:43;;;;;;;;;;;;;;;12.96;59.01;95579.16;4216856;28;5660;-72
2023/12/13 16:19:46;;;;;;;;;;;;;;;12.97;59.12;95572.00;4213968;28;5730;-76
2023/12/13 16:21:50;;;;;;;;;;;;;;;12.98;59.04;95579.72;4212538;28;5747;-75
2023/12/13 16:23:53;;;;;;;;;;;;;;;13.00;59.13;95571.53;4211157;28;5824;-74
2023/12/13 16:25:55;;;;;;;;;;;;;;;13.00;59.23;95576.81;4209539;28;5740;-74
2023/12/13 16:27:58;;;;;;;;;;;;;;;13.00;59.19;95576.81;4212736;28;5688;-75
2023/12/13 16:30:01;;;;;;;;;;;;;;;13.02;59.29;95578.22;4209202;28;5757;-74
2023/12/13 16:32:04;;;;;;;;;;;;;;;13.03;59.33;95579.03;4202714;28;5831;-75
2023/12/13 16:34:08;;;;;;;;;;;;;;;13.02;59.44;95575.56;4216355;28;5744;-70
2023/12/13 16:36:12;;;;;;;;;;;;;;;13.03;59.33;95571.06;4214827;28;6519;-75
2023/12/13 16:38:17;;;;;;;;;;;;;;;13.03;59.61;95565.75;4218957;28;6463;-66
2023/12/13 16:40:21;;;;;;;;;;;;;;;13.04;59.58;95564.72;4211180;28;5656;-68
2023/12/13 16:42:24;;;;;;;;;;;;;;;13.03;59.68;95565.75;4208782;28;5784;-69
2023/12/13 16:44:27;;;;;;;;;;;;;;;13.04;59.75;95575.31;4203342;28;5689;-70
2023/12/13 16:46:31;;;;;;;;;;;;;;;13.05;59.72;95576.94;4217458;28;5834;-66
2023/12/13 16:48:35;;;;;;;;;;;;;;;13.05;59.54;95574.28;4215858;28;5735;-67
2023/12/13 16:50:38;;;;;;;;;;;;;;;13.05;59.56;95579.59;4210679;28;5659;-68
2023/12/13 16:52:41;;;;;;;;;;;;;;;13.04;59.77;95589.41;4214880;28;5670;-71
2023/12/13 16:54:46;;;;;;;;;;;;;;;13.03;59.89;95587.78;4214504;28;5834;-70
2023/12/13 16:56:51;;;;;;;;;;;;;;;13.03;59.74;95587.78;4215841;28;5668;-68
2023/12/13 16:58:54;;;;;;;;;;;;;;;13.04;59.84;95583.28;4223400;28;5846;-67
2023/12/13 17:00:57;;;;;;;;;;;;;;;13.05;59.85;95592.84;4210287;28;5864;-68
2023/12/13 17:03:02;;;;;;;;;;;;;;;13.03;59.94;95595.75;4222165;28;5751;-68
2023/12/13 17:05:05;;;;;;;;;;;;;;;13.01;59.96;95602.31;4220987;28;5872;-68
2023/12/13 17:07:08;;;;;;;;;;;;;;;12.99;59.02;95601.75;4217953;28;5675;-66
2023/12/13 17:09:12;;;;;;;;;;;;;;;12.95;59.53;95605.91;4209624;28;5889;-67
2023/12/13 17:11:16;;;;;;;;;;;;;;;12.94;59.71;95606.97;4216233;28;6156;-67
2023/12/13 17:13:19;;;;;;;;;;;;;;;12.91;59.77;95623.34;4216960;28;5681;-66
2023/12/13 17:15:21;;;;;;;;;;;;;;;12.91;59.73;95625.97;4218545;28;6442;-68
2023/12/13 17:17:24;;;;;;;;;;;;;;;12.87;59.75;95632.81;4213993;28;5798;-78
2023/12/13 17:19:28;;;;;;;;;;;;;;;12.87;59.90;95632.81;4218305;28;5666;-78
2023/12/13 17:21:31;;;;;;;;;;;;;;;12.89;59.78;95641.34;4212570;28;5701;-83
2023/12/13 17:23:34;;;;;;;;;;;;;;;12.87;60.09;95640.78;4219898;28;5702;-80
2023/12/13 17:25:37;;;;;;;;;;;;;;;12.88;60.05;95643.19;4219318;28;5660;-75
2023/12/13 17:27:40;;;;;;;;;;;;;;;12.87;60.06;95630.16;4222192;28;5739;-81
2023/12/13 17:29:43;;;;;;;;;;;;;;;12.84;60.16;95631.44;4224210;28;5755;-82
2023/12/13 17:31:46;;;;;;;;;;;;;;;12.85;59.84;95626.94;4217737;28;5750;-82
2023/12/13 17:33:50;;;;;;;;;;;;;;;12.85;60.00;95626.94;4224678;28;5648;-82
2023/12/13 17:35:54;;;;;;;;;;;;;;;12.86;60.03;95618.75;4213459;28;5774;-75
2023/12/13 17:37:58;;;;;;;;;;;;;;;12.86;59.86;95631.19;4221095;28;5693;-78
2023/12/13 17:40:01;;;;;;;;;;;;;;;12.85;59.74;95626.94;4204119;28;6498;-79
2023/12/13 17:42:05;;;;;;;;;;;;;;;12.85;59.96;95629.59;4216991;28;5663;-77
2023/12/13 17:44:08;;;;;;;;;;;;;;;12.86;59.85;95637.31;4209802;28;5668;-79
2023/12/13 17:46:11;;;;;;;;;;;;;;;12.85;59.93;95642.84;4222117;28;5679;-77
2023/12/13 17:48:14;;;;;;;;;;;;;;;12.85;59.74;95632.25;4203265;28;5697;-74
2023/12/13 17:50:17;;;;;;;;;;;;;;;12.86;60.04;95639.16;4209817;28;5661;-84
2023/12/13 17:52:21;;;;;;;;;;;;;;;12.87;59.76;95624.84;4217123;28;5779;-80
2023/12/13 17:54:26;;;;;;;;;;;;;;;12.85;59.81;95622.44;4218170;28;5763;-78
2023/12/13 17:56:33;;;;;;;;;;;;;;;12.85;60.05;95629.59;4208283;28;5838;-77
2023/12/13 17:58:35;;;;;;;;;;;;;;;12.82;59.88;95631.69;4212409;28;5822;-80
2023/12/13 18:00:39;;;;;;;;;;;;;;;12.83;59.87;95632.47;4213570;28;5682;-94